sensor_id;sensor_type;location;lat;lon;timestamp;P1;durP1;ratioP1;P2;durP2;ratioP2
75680;SDS011;64294;49.176;16.626;2023-11-22T00:00:22;4.88;;;2.92;;
75680;SDS011;64294;49.176;16.626;2023-11-22T00:02:47;7.97;;;3.33;;
75680;SDS011;64294;49.176;16.626;2023-11-22T00:05:13;6.80;;;3.33;;
75680;SDS011;64294;49.176;16.626;2023-11-22T00:07:39;6.25;;;3.20;;
75680;SDS011;64294;49.176;16.626;2023-11-22T00:10:04;5.13;;;3.00;;
75680;SDS011;64294;49.176;16.626;2023-11-22T00:12:30;5.57;;;3.40;;
75680;SDS011;64294;49.176;16.626;2023-11-22T00:15:03;6.40;;;3.20;;
75680;SDS011;64294;49.176;16.626;2023-11-22T00:17:31;6.03;;;3.05;;
75680;SDS011;64294;49.176;16.626;2023-11-22T00:19:57;7.13;;;3.17;;
75680;SDS011;64294;49.176;16.626;2023-11-22T00:22:22;6.20;;;3.22;;
75680;SDS011;64294;49.176;16.626;2023-11-22T00:24:48;6.13;;;3.15;;
75680;SDS011;64294;49.176;16.626;2023-11-22T00:27:15;5.60;;;3.20;;
75680;SDS011;64294;49.176;16.626;2023-11-22T00:29:41;7.15;;;3.40;;
75680;SDS011;64294;49.176;16.626;2023-11-22T00:32:06;6.53;;;3.60;;
75680;SDS011;64294;49.176;16.626;2023-11-22T00:34:32;13.32;;;3.70;;
75680;SDS011;64294;49.176;16.626;2023-11-22T00:36:58;5.93;;;3.20;;
75680;SDS011;64294;49.176;16.626;2023-11-22T00:39:23;7.55;;;3.40;;
75680;SDS011;64294;49.176;16.626;2023-11-22T00:41:49;6.50;;;3.10;;
75680;SDS011;64294;49.176;16.626;2023-11-22T00:44:14;6.50;;;3.30;;
75680;SDS011;64294;49.176;16.626;2023-11-22T00:46:40;6.35;;;3.28;;
75680;SDS011;64294;49.176;16.626;2023-11-22T00:49:05;5.35;;;3.10;;
75680;SDS011;64294;49.176;16.626;2023-11-22T00:51:33;5.82;;;3.03;;
75680;SDS011;64294;49.176;16.626;2023-11-22T00:53:59;7.05;;;3.15;;
75680;SDS011;64294;49.176;16.626;2023-11-22T00:56:25;5.18;;;3.00;;
75680;SDS011;64294;49.176;16.626;2023-11-22T00:58:51;5.55;;;3.10;;
75680;SDS011;64294;49.176;16.626;2023-11-22T01:01:18;5.30;;;2.90;;
75680;SDS011;64294;49.176;16.626;2023-11-22T01:03:44;7.60;;;3.70;;
75680;SDS011;64294;49.176;16.626;2023-11-22T01:06:09;6.50;;;3.08;;
75680;SDS011;64294;49.176;16.626;2023-11-22T01:08:35;5.88;;;3.00;;
75680;SDS011;64294;49.176;16.626;2023-11-22T01:11:00;5.90;;;3.20;;
75680;SDS011;64294;49.176;16.626;2023-11-22T01:13:27;6.15;;;3.20;;
75680;SDS011;64294;49.176;16.626;2023-11-22T01:15:52;7.55;;;3.90;;
75680;SDS011;64294;49.176;16.626;2023-11-22T01:18:19;6.20;;;3.53;;
75680;SDS011;64294;49.176;16.626;2023-11-22T01:20:45;6.82;;;3.58;;
75680;SDS011;64294;49.176;16.626;2023-11-22T01:23:10;7.30;;;3.55;;
75680;SDS011;64294;49.176;16.626;2023-11-22T01:25:35;7.53;;;2.90;;
75680;SDS011;64294;49.176;16.626;2023-11-22T01:28:01;7.43;;;3.20;;
75680;SDS011;64294;49.176;16.626;2023-11-22T01:30:26;5.90;;;2.97;;
75680;SDS011;64294;49.176;16.626;2023-11-22T01:32:53;8.30;;;3.42;;
75680;SDS011;64294;49.176;16.626;2023-11-22T01:35:20;7.10;;;3.13;;
75680;SDS011;64294;49.176;16.626;2023-11-22T01:37:46;7.57;;;3.30;;
75680;SDS011;64294;49.176;16.626;2023-11-22T01:40:11;7.40;;;3.50;;
75680;SDS011;64294;49.176;16.626;2023-11-22T01:42:37;6.45;;;3.03;;
75680;SDS011;64294;49.176;16.626;2023-11-22T01:45:05;6.20;;;2.92;;
75680;SDS011;64294;49.176;16.626;2023-11-22T01:47:31;6.85;;;3.55;;
75680;SDS011;64294;49.176;16.626;2023-11-22T01:49:57;6.45;;;4.10;;
75680;SDS011;64294;49.176;16.626;2023-11-22T01:52:22;6.60;;;3.85;;
75680;SDS011;64294;49.176;16.626;2023-11-22T01:54:48;8.35;;;4.10;;
75680;SDS011;64294;49.176;16.626;2023-11-22T01:57:14;10.38;;;4.45;;
75680;SDS011;64294;49.176;16.626;2023-11-22T01:59:40;6.70;;;4.03;;
75680;SDS011;64294;49.176;16.626;2023-11-22T02:02:07;7.70;;;3.85;;
75680;SDS011;64294;49.176;16.626;2023-11-22T02:04:33;7.10;;;4.03;;
75680;SDS011;64294;49.176;16.626;2023-11-22T02:06:58;7.68;;;4.18;;
75680;SDS011;64294;49.176;16.626;2023-11-22T02:09:24;8.45;;;4.50;;
75680;SDS011;64294;49.176;16.626;2023-11-22T02:11:50;8.82;;;4.18;;
75680;SDS011;64294;49.176;16.626;2023-11-22T02:14:15;7.70;;;4.10;;
75680;SDS011;64294;49.176;16.626;2023-11-22T02:16:41;6.90;;;3.78;;
75680;SDS011;64294;49.176;16.626;2023-11-22T02:19:06;7.50;;;4.70;;
75680;SDS011;64294;49.176;16.626;2023-11-22T02:21:38;7.88;;;4.13;;
75680;SDS011;64294;49.176;16.626;2023-11-22T02:24:04;6.30;;;3.85;;
75680;SDS011;64294;49.176;16.626;2023-11-22T02:26:30;8.30;;;4.55;;
75680;SDS011;64294;49.176;16.626;2023-11-22T02:28:56;8.75;;;4.15;;
75680;SDS011;64294;49.176;16.626;2023-11-22T02:31:21;6.68;;;3.97;;
75680;SDS011;64294;49.176;16.626;2023-11-22T02:33:47;13.10;;;4.47;;
75680;SDS011;64294;49.176;16.626;2023-11-22T02:36:13;8.30;;;4.30;;
75680;SDS011;64294;49.176;16.626;2023-11-22T02:38:38;8.10;;;4.55;;
75680;SDS011;64294;49.176;16.626;2023-11-22T02:41:04;8.02;;;4.32;;
75680;SDS011;64294;49.176;16.626;2023-11-22T02:43:30;7.72;;;4.20;;
75680;SDS011;64294;49.176;16.626;2023-11-22T02:45:55;8.52;;;4.57;;
75680;SDS011;64294;49.176;16.626;2023-11-22T02:48:21;9.30;;;4.57;;
75680;SDS011;64294;49.176;16.626;2023-11-22T02:50:47;8.63;;;4.70;;
75680;SDS011;64294;49.176;16.626;2023-11-22T02:53:14;8.48;;;4.35;;
75680;SDS011;64294;49.176;16.626;2023-11-22T02:55:39;8.15;;;4.78;;
75680;SDS011;64294;49.176;16.626;2023-11-22T02:58:04;8.45;;;4.85;;
75680;SDS011;64294;49.176;16.626;2023-11-22T03:00:31;9.20;;;4.95;;
75680;SDS011;64294;49.176;16.626;2023-11-22T03:02:59;8.32;;;5.10;;
75680;SDS011;64294;49.176;16.626;2023-11-22T03:05:25;7.35;;;4.43;;
75680;SDS011;64294;49.176;16.626;2023-11-22T03:07:50;9.05;;;4.68;;
75680;SDS011;64294;49.176;16.626;2023-11-22T03:10:18;8.40;;;5.15;;
75680;SDS011;64294;49.176;16.626;2023-11-22T03:12:44;8.65;;;5.18;;
75680;SDS011;64294;49.176;16.626;2023-11-22T03:15:09;11.27;;;5.50;;
75680;SDS011;64294;49.176;16.626;2023-11-22T03:17:35;9.38;;;4.90;;
75680;SDS011;64294;49.176;16.626;2023-11-22T03:20:03;11.15;;;5.47;;
75680;SDS011;64294;49.176;16.626;2023-11-22T03:22:33;8.45;;;4.88;;
75680;SDS011;64294;49.176;16.626;2023-11-22T03:25:00;9.75;;;4.75;;
75680;SDS011;64294;49.176;16.626;2023-11-22T03:27:27;8.90;;;4.47;;
75680;SDS011;64294;49.176;16.626;2023-11-22T03:29:53;7.65;;;4.60;;
75680;SDS011;64294;49.176;16.626;2023-11-22T03:32:18;7.35;;;3.80;;
75680;SDS011;64294;49.176;16.626;2023-11-22T03:34:43;8.27;;;4.30;;
75680;SDS011;64294;49.176;16.626;2023-11-22T03:37:09;8.18;;;4.03;;
75680;SDS011;64294;49.176;16.626;2023-11-22T03:39:34;7.68;;;4.22;;
75680;SDS011;64294;49.176;16.626;2023-11-22T03:42:00;8.55;;;4.95;;
75680;SDS011;64294;49.176;16.626;2023-11-22T03:44:25;7.18;;;4.60;;
75680;SDS011;64294;49.176;16.626;2023-11-22T03:46:51;9.07;;;4.63;;
75680;SDS011;64294;49.176;16.626;2023-11-22T03:49:16;8.90;;;4.78;;
75680;SDS011;64294;49.176;16.626;2023-11-22T03:51:42;9.65;;;5.18;;
75680;SDS011;64294;49.176;16.626;2023-11-22T03:54:08;10.75;;;5.53;;
75680;SDS011;64294;49.176;16.626;2023-11-22T03:56:35;9.10;;;4.80;;
75680;SDS011;64294;49.176;16.626;2023-11-22T03:59:01;8.23;;;5.05;;
75680;SDS011;64294;49.176;16.626;2023-11-22T04:01:28;9.65;;;5.78;;
75680;SDS011;64294;49.176;16.626;2023-11-22T04:03:54;8.50;;;4.63;;
75680;SDS011;64294;49.176;16.626;2023-11-22T04:06:19;7.65;;;4.25;;
75680;SDS011;64294;49.176;16.626;2023-11-22T04:08:45;10.63;;;6.50;;
75680;SDS011;64294;49.176;16.626;2023-11-22T04:11:14;10.48;;;6.60;;
75680;SDS011;64294;49.176;16.626;2023-11-22T04:13:41;8.75;;;5.15;;
75680;SDS011;64294;49.176;16.626;2023-11-22T04:16:07;7.70;;;4.82;;
75680;SDS011;64294;49.176;16.626;2023-11-22T04:18:36;8.40;;;4.50;;
75680;SDS011;64294;49.176;16.626;2023-11-22T04:21:01;6.95;;;4.38;;
75680;SDS011;64294;49.176;16.626;2023-11-22T04:23:29;6.75;;;4.22;;
75680;SDS011;64294;49.176;16.626;2023-11-22T04:25:56;8.85;;;4.53;;
75680;SDS011;64294;49.176;16.626;2023-11-22T04:28:23;7.20;;;4.20;;
75680;SDS011;64294;49.176;16.626;2023-11-22T04:30:49;9.13;;;5.38;;
75680;SDS011;64294;49.176;16.626;2023-11-22T04:33:14;7.50;;;4.28;;
75680;SDS011;64294;49.176;16.626;2023-11-22T04:35:39;8.85;;;4.25;;
75680;SDS011;64294;49.176;16.626;2023-11-22T04:38:06;7.63;;;4.60;;
75680;SDS011;64294;49.176;16.626;2023-11-22T04:40:32;9.70;;;5.47;;
75680;SDS011;64294;49.176;16.626;2023-11-22T04:42:57;9.07;;;5.80;;
75680;SDS011;64294;49.176;16.626;2023-11-22T04:45:23;10.55;;;6.68;;
75680;SDS011;64294;49.176;16.626;2023-11-22T04:47:48;10.02;;;6.15;;
75680;SDS011;64294;49.176;16.626;2023-11-22T04:50:16;9.57;;;5.38;;
75680;SDS011;64294;49.176;16.626;2023-11-22T04:52:42;9.95;;;5.57;;
75680;SDS011;64294;49.176;16.626;2023-11-22T04:55:08;9.57;;;5.40;;
75680;SDS011;64294;49.176;16.626;2023-11-22T04:57:34;10.25;;;5.93;;
75680;SDS011;64294;49.176;16.626;2023-11-22T04:59:59;9.10;;;5.57;;
75680;SDS011;64294;49.176;16.626;2023-11-22T05:02:26;9.32;;;6.28;;
75680;SDS011;64294;49.176;16.626;2023-11-22T05:04:52;13.88;;;6.75;;
75680;SDS011;64294;49.176;16.626;2023-11-22T05:07:18;9.27;;;5.72;;
75680;SDS011;64294;49.176;16.626;2023-11-22T05:09:44;9.07;;;6.05;;
75680;SDS011;64294;49.176;16.626;2023-11-22T05:12:09;9.35;;;6.13;;
75680;SDS011;64294;49.176;16.626;2023-11-22T05:14:39;10.20;;;5.97;;
75680;SDS011;64294;49.176;16.626;2023-11-22T05:17:04;10.52;;;6.00;;
75680;SDS011;64294;49.176;16.626;2023-11-22T05:19:30;12.93;;;6.40;;
75680;SDS011;64294;49.176;16.626;2023-11-22T05:21:56;11.73;;;6.18;;
75680;SDS011;64294;49.176;16.626;2023-11-22T05:24:23;10.25;;;5.70;;
75680;SDS011;64294;49.176;16.626;2023-11-22T05:26:48;9.88;;;5.50;;
75680;SDS011;64294;49.176;16.626;2023-11-22T05:29:14;10.10;;;5.72;;
75680;SDS011;64294;49.176;16.626;2023-11-22T05:31:39;10.88;;;5.10;;
75680;SDS011;64294;49.176;16.626;2023-11-22T05:34:05;11.98;;;5.40;;
75680;SDS011;64294;49.176;16.626;2023-11-22T05:36:30;10.48;;;5.50;;
75680;SDS011;64294;49.176;16.626;2023-11-22T05:38:56;10.45;;;5.85;;
75680;SDS011;64294;49.176;16.626;2023-11-22T05:41:27;8.55;;;5.13;;
75680;SDS011;64294;49.176;16.626;2023-11-22T05:43:52;11.73;;;5.00;;
75680;SDS011;64294;49.176;16.626;2023-11-22T05:46:19;13.18;;;5.78;;
75680;SDS011;64294;49.176;16.626;2023-11-22T05:48:49;11.02;;;5.57;;
75680;SDS011;64294;49.176;16.626;2023-11-22T05:51:19;7.72;;;4.85;;
75680;SDS011;64294;49.176;16.626;2023-11-22T05:53:44;10.15;;;5.32;;
75680;SDS011;64294;49.176;16.626;2023-11-22T05:56:10;9.40;;;5.32;;
75680;SDS011;64294;49.176;16.626;2023-11-22T05:58:36;9.55;;;5.60;;
75680;SDS011;64294;49.176;16.626;2023-11-22T06:01:04;10.35;;;5.55;;
75680;SDS011;64294;49.176;16.626;2023-11-22T06:03:36;13.57;;;5.90;;
75680;SDS011;64294;49.176;16.626;2023-11-22T06:06:03;11.73;;;5.32;;
75680;SDS011;64294;49.176;16.626;2023-11-22T06:08:29;10.63;;;5.82;;
75680;SDS011;64294;49.176;16.626;2023-11-22T06:10:55;10.38;;;5.78;;
75680;SDS011;64294;49.176;16.626;2023-11-22T06:13:23;11.55;;;5.40;;
75680;SDS011;64294;49.176;16.626;2023-11-22T06:15:48;10.80;;;6.00;;
75680;SDS011;64294;49.176;16.626;2023-11-22T06:18:17;11.65;;;5.95;;
75680;SDS011;64294;49.176;16.626;2023-11-22T06:20:43;12.38;;;6.00;;
75680;SDS011;64294;49.176;16.626;2023-11-22T06:23:09;9.43;;;5.45;;
75680;SDS011;64294;49.176;16.626;2023-11-22T06:25:35;11.07;;;5.80;;
75680;SDS011;64294;49.176;16.626;2023-11-22T06:28:06;10.57;;;6.05;;
75680;SDS011;64294;49.176;16.626;2023-11-22T06:30:32;11.57;;;5.80;;
75680;SDS011;64294;49.176;16.626;2023-11-22T06:32:58;11.35;;;6.43;;
75680;SDS011;64294;49.176;16.626;2023-11-22T06:35:23;12.77;;;6.10;;
75680;SDS011;64294;49.176;16.626;2023-11-22T06:37:49;12.10;;;5.93;;
75680;SDS011;64294;49.176;16.626;2023-11-22T06:40:14;9.85;;;5.75;;
75680;SDS011;64294;49.176;16.626;2023-11-22T06:42:42;11.25;;;5.40;;
75680;SDS011;64294;49.176;16.626;2023-11-22T06:45:09;10.77;;;5.53;;
75680;SDS011;64294;49.176;16.626;2023-11-22T06:47:41;9.13;;;5.10;;
75680;SDS011;64294;49.176;16.626;2023-11-22T06:50:08;10.88;;;5.15;;
75680;SDS011;64294;49.176;16.626;2023-11-22T06:52:37;9.70;;;5.43;;
75680;SDS011;64294;49.176;16.626;2023-11-22T06:55:03;8.75;;;5.10;;
75680;SDS011;64294;49.176;16.626;2023-11-22T06:57:33;9.93;;;5.20;;
75680;SDS011;64294;49.176;16.626;2023-11-22T06:59:59;8.88;;;4.85;;
75680;SDS011;64294;49.176;16.626;2023-11-22T07:02:26;10.25;;;5.20;;
75680;SDS011;64294;49.176;16.626;2023-11-22T07:04:52;10.35;;;5.05;;
75680;SDS011;64294;49.176;16.626;2023-11-22T07:07:18;12.52;;;5.45;;
75680;SDS011;64294;49.176;16.626;2023-11-22T07:09:44;11.20;;;5.82;;
75680;SDS011;64294;49.176;16.626;2023-11-22T07:12:11;10.75;;;5.57;;
75680;SDS011;64294;49.176;16.626;2023-11-22T07:14:36;10.95;;;5.63;;
75680;SDS011;64294;49.176;16.626;2023-11-22T07:17:02;10.27;;;5.57;;
75680;SDS011;64294;49.176;16.626;2023-11-22T07:19:28;10.48;;;5.82;;
75680;SDS011;64294;49.176;16.626;2023-11-22T07:21:54;11.13;;;6.32;;
75680;SDS011;64294;49.176;16.626;2023-11-22T07:24:19;10.80;;;6.30;;
75680;SDS011;64294;49.176;16.626;2023-11-22T07:26:45;10.65;;;5.80;;
75680;SDS011;64294;49.176;16.626;2023-11-22T07:29:10;10.02;;;5.72;;
75680;SDS011;64294;49.176;16.626;2023-11-22T07:31:37;9.20;;;5.47;;
75680;SDS011;64294;49.176;16.626;2023-11-22T07:34:03;10.73;;;5.80;;
75680;SDS011;64294;49.176;16.626;2023-11-22T07:36:29;9.85;;;6.05;;
75680;SDS011;64294;49.176;16.626;2023-11-22T07:38:55;11.23;;;6.32;;
75680;SDS011;64294;49.176;16.626;2023-11-22T07:41:21;13.13;;;6.18;;
75680;SDS011;64294;49.176;16.626;2023-11-22T07:43:47;10.85;;;6.65;;
75680;SDS011;64294;49.176;16.626;2023-11-22T07:46:13;12.48;;;6.75;;
75680;SDS011;64294;49.176;16.626;2023-11-22T07:48:39;12.57;;;6.95;;
75680;SDS011;64294;49.176;16.626;2023-11-22T07:51:06;12.05;;;7.10;;
75680;SDS011;64294;49.176;16.626;2023-11-22T07:53:32;11.95;;;6.93;;
75680;SDS011;64294;49.176;16.626;2023-11-22T07:55:59;12.48;;;7.00;;
75680;SDS011;64294;49.176;16.626;2023-11-22T07:58:29;11.80;;;7.13;;
75680;SDS011;64294;49.176;16.626;2023-11-22T08:00:56;12.50;;;7.47;;
75680;SDS011;64294;49.176;16.626;2023-11-22T08:03:21;13.30;;;7.57;;
75680;SDS011;64294;49.176;16.626;2023-11-22T08:05:50;13.43;;;7.25;;
75680;SDS011;64294;49.176;16.626;2023-11-22T08:08:19;14.85;;;6.88;;
75680;SDS011;64294;49.176;16.626;2023-11-22T08:10:46;12.75;;;6.78;;
75680;SDS011;64294;49.176;16.626;2023-11-22T08:13:13;10.70;;;6.40;;
75680;SDS011;64294;49.176;16.626;2023-11-22T08:15:40;10.32;;;6.13;;
75680;SDS011;64294;49.176;16.626;2023-11-22T08:18:05;9.63;;;6.00;;
75680;SDS011;64294;49.176;16.626;2023-11-22T08:20:31;9.20;;;6.00;;
75680;SDS011;64294;49.176;16.626;2023-11-22T08:22:56;11.43;;;6.28;;
75680;SDS011;64294;49.176;16.626;2023-11-22T08:25:22;13.85;;;7.40;;
75680;SDS011;64294;49.176;16.626;2023-11-22T08:27:47;13.23;;;6.97;;
75680;SDS011;64294;49.176;16.626;2023-11-22T08:30:13;11.75;;;6.78;;
75680;SDS011;64294;49.176;16.626;2023-11-22T08:32:44;13.55;;;6.75;;
75680;SDS011;64294;49.176;16.626;2023-11-22T08:35:13;12.05;;;6.53;;
75680;SDS011;64294;49.176;16.626;2023-11-22T08:37:40;10.90;;;6.75;;
75680;SDS011;64294;49.176;16.626;2023-11-22T08:40:07;14.05;;;6.88;;
75680;SDS011;64294;49.176;16.626;2023-11-22T08:42:33;16.58;;;6.97;;
75680;SDS011;64294;49.176;16.626;2023-11-22T08:45:00;13.13;;;7.10;;
75680;SDS011;64294;49.176;16.626;2023-11-22T08:47:27;13.10;;;6.97;;
75680;SDS011;64294;49.176;16.626;2023-11-22T08:49:53;17.23;;;6.80;;
75680;SDS011;64294;49.176;16.626;2023-11-22T08:52:18;12.57;;;7.13;;
75680;SDS011;64294;49.176;16.626;2023-11-22T08:54:45;11.70;;;6.43;;
75680;SDS011;64294;49.176;16.626;2023-11-22T08:57:10;13.23;;;7.35;;
75680;SDS011;64294;49.176;16.626;2023-11-22T08:59:36;10.73;;;6.50;;
75680;SDS011;64294;49.176;16.626;2023-11-22T09:02:05;11.23;;;6.32;;
75680;SDS011;64294;49.176;16.626;2023-11-22T09:04:33;12.13;;;7.32;;
75680;SDS011;64294;49.176;16.626;2023-11-22T09:07:00;14.32;;;7.18;;
75680;SDS011;64294;49.176;16.626;2023-11-22T09:09:25;12.65;;;7.00;;
75680;SDS011;64294;49.176;16.626;2023-11-22T09:11:56;13.98;;;7.20;;
75680;SDS011;64294;49.176;16.626;2023-11-22T09:14:22;12.40;;;7.13;;
75680;SDS011;64294;49.176;16.626;2023-11-22T09:16:49;11.40;;;6.38;;
75680;SDS011;64294;49.176;16.626;2023-11-22T09:19:19;10.25;;;6.05;;
75680;SDS011;64294;49.176;16.626;2023-11-22T09:21:48;11.60;;;6.35;;
75680;SDS011;64294;49.176;16.626;2023-11-22T09:24:13;10.05;;;5.93;;
75680;SDS011;64294;49.176;16.626;2023-11-22T09:26:39;12.75;;;7.63;;
75680;SDS011;64294;49.176;16.626;2023-11-22T09:29:04;12.27;;;7.20;;
75680;SDS011;64294;49.176;16.626;2023-11-22T09:31:30;12.55;;;7.15;;
75680;SDS011;64294;49.176;16.626;2023-11-22T09:33:56;13.93;;;6.90;;
75680;SDS011;64294;49.176;16.626;2023-11-22T09:36:22;11.82;;;7.20;;
75680;SDS011;64294;49.176;16.626;2023-11-22T09:38:49;13.30;;;6.78;;
75680;SDS011;64294;49.176;16.626;2023-11-22T09:41:15;13.57;;;7.47;;
75680;SDS011;64294;49.176;16.626;2023-11-22T09:43:42;16.60;;;7.85;;
75680;SDS011;64294;49.176;16.626;2023-11-22T09:46:09;13.93;;;7.55;;
75680;SDS011;64294;49.176;16.626;2023-11-22T09:48:38;15.13;;;7.75;;
75680;SDS011;64294;49.176;16.626;2023-11-22T09:51:09;16.15;;;8.05;;
75680;SDS011;64294;49.176;16.626;2023-11-22T09:56:08;13.48;;;7.57;;
75680;SDS011;64294;49.176;16.626;2023-11-22T09:58:35;12.73;;;7.45;;
75680;SDS011;64294;49.176;16.626;2023-11-22T10:01:04;15.13;;;7.80;;
75680;SDS011;64294;49.176;16.626;2023-11-22T10:03:36;13.10;;;7.50;;
75680;SDS011;64294;49.176;16.626;2023-11-22T10:06:02;14.07;;;7.82;;
75680;SDS011;64294;49.176;16.626;2023-11-22T10:08:29;14.20;;;7.60;;
75680;SDS011;64294;49.176;16.626;2023-11-22T10:10:57;13.05;;;8.05;;
75680;SDS011;64294;49.176;16.626;2023-11-22T10:13:24;13.88;;;8.23;;
75680;SDS011;64294;49.176;16.626;2023-11-22T10:15:50;14.52;;;7.78;;
75680;SDS011;64294;49.176;16.626;2023-11-22T10:18:19;16.02;;;7.90;;
75680;SDS011;64294;49.176;16.626;2023-11-22T10:20:48;17.55;;;8.38;;
75680;SDS011;64294;49.176;16.626;2023-11-22T10:23:17;21.27;;;9.13;;
75680;SDS011;64294;49.176;16.626;2023-11-22T10:25:53;15.18;;;8.70;;
75680;SDS011;64294;49.176;16.626;2023-11-22T10:28:19;13.15;;;7.90;;
75680;SDS011;64294;49.176;16.626;2023-11-22T10:30:45;15.50;;;8.10;;
75680;SDS011;64294;49.176;16.626;2023-11-22T10:33:11;12.50;;;8.02;;
75680;SDS011;64294;49.176;16.626;2023-11-22T10:35:46;14.48;;;8.45;;
75680;SDS011;64294;49.176;16.626;2023-11-22T10:38:19;19.10;;;9.27;;
75680;SDS011;64294;49.176;16.626;2023-11-22T10:40:45;18.00;;;9.10;;
75680;SDS011;64294;49.176;16.626;2023-11-22T10:43:13;15.50;;;8.63;;
75680;SDS011;64294;49.176;16.626;2023-11-22T10:45:42;15.60;;;8.63;;
75680;SDS011;64294;49.176;16.626;2023-11-22T10:48:16;18.23;;;8.60;;
75680;SDS011;64294;49.176;16.626;2023-11-22T10:50:43;13.40;;;8.35;;
75680;SDS011;64294;49.176;16.626;2023-11-22T10:53:12;16.13;;;8.00;;
75680;SDS011;64294;49.176;16.626;2023-11-22T10:55:45;17.10;;;8.23;;
75680;SDS011;64294;49.176;16.626;2023-11-22T10:58:14;17.33;;;9.15;;
75680;SDS011;64294;49.176;16.626;2023-11-22T11:00:42;16.65;;;8.70;;
75680;SDS011;64294;49.176;16.626;2023-11-22T11:03:11;16.83;;;8.25;;
75680;SDS011;64294;49.176;16.626;2023-11-22T11:05:52;17.23;;;9.35;;
75680;SDS011;64294;49.176;16.626;2023-11-22T11:08:22;18.08;;;9.05;;
75680;SDS011;64294;49.176;16.626;2023-11-22T11:10:52;15.60;;;8.98;;
75680;SDS011;64294;49.176;16.626;2023-11-22T11:13:19;17.58;;;9.90;;
75680;SDS011;64294;49.176;16.626;2023-11-22T11:15:45;17.25;;;9.57;;
75680;SDS011;64294;49.176;16.626;2023-11-22T11:18:13;17.08;;;9.02;;
75680;SDS011;64294;49.176;16.626;2023-11-22T11:20:50;16.52;;;8.68;;
75680;SDS011;64294;49.176;16.626;2023-11-22T11:23:20;17.52;;;8.55;;
75680;SDS011;64294;49.176;16.626;2023-11-22T11:25:51;14.35;;;8.95;;
75680;SDS011;64294;49.176;16.626;2023-11-22T11:28:19;15.07;;;8.90;;
75680;SDS011;64294;49.176;16.626;2023-11-22T11:30:48;17.23;;;9.00;;
75680;SDS011;64294;49.176;16.626;2023-11-22T11:33:15;20.65;;;9.90;;
75680;SDS011;64294;49.176;16.626;2023-11-22T11:38:16;15.75;;;9.30;;
75680;SDS011;64294;49.176;16.626;2023-11-22T11:40:51;16.67;;;9.07;;
75680;SDS011;64294;49.176;16.626;2023-11-22T11:46:14;16.63;;;9.55;;
75680;SDS011;64294;49.176;16.626;2023-11-22T11:48:50;18.98;;;10.10;;
75680;SDS011;64294;49.176;16.626;2023-11-22T11:51:22;20.45;;;10.18;;
75680;SDS011;64294;49.176;16.626;2023-11-22T11:53:48;16.52;;;9.80;;
75680;SDS011;64294;49.176;16.626;2023-11-22T11:56:15;20.20;;;10.90;;
75680;SDS011;64294;49.176;16.626;2023-11-22T11:58:41;19.42;;;10.55;;
75680;SDS011;64294;49.176;16.626;2023-11-22T12:01:08;18.60;;;10.77;;
75680;SDS011;64294;49.176;16.626;2023-11-22T12:03:37;21.63;;;10.18;;
75680;SDS011;64294;49.176;16.626;2023-11-22T12:06:03;18.65;;;10.48;;
75680;SDS011;64294;49.176;16.626;2023-11-22T12:08:32;20.08;;;11.07;;
75680;SDS011;64294;49.176;16.626;2023-11-22T12:11:01;20.05;;;10.60;;
75680;SDS011;64294;49.176;16.626;2023-11-22T12:13:29;18.92;;;10.07;;
75680;SDS011;64294;49.176;16.626;2023-11-22T12:15:55;21.35;;;11.27;;
75680;SDS011;64294;49.176;16.626;2023-11-22T12:18:21;21.77;;;10.85;;
75680;SDS011;64294;49.176;16.626;2023-11-22T12:20:54;20.23;;;11.02;;
75680;SDS011;64294;49.176;16.626;2023-11-22T12:23:21;18.65;;;10.50;;
75680;SDS011;64294;49.176;16.626;2023-11-22T12:25:47;20.08;;;10.95;;
75680;SDS011;64294;49.176;16.626;2023-11-22T12:28:16;20.05;;;10.85;;
75680;SDS011;64294;49.176;16.626;2023-11-22T12:30:42;22.15;;;10.70;;
75680;SDS011;64294;49.176;16.626;2023-11-22T12:33:10;18.83;;;10.13;;
75680;SDS011;64294;49.176;16.626;2023-11-22T12:35:42;18.27;;;10.32;;
75680;SDS011;64294;49.176;16.626;2023-11-22T12:38:09;19.17;;;10.85;;
75680;SDS011;64294;49.176;16.626;2023-11-22T12:40:35;21.25;;;11.00;;
75680;SDS011;64294;49.176;16.626;2023-11-22T12:43:01;20.30;;;11.30;;
75680;SDS011;64294;49.176;16.626;2023-11-22T12:45:28;18.90;;;10.82;;
75680;SDS011;64294;49.176;16.626;2023-11-22T12:47:55;20.40;;;11.13;;
75680;SDS011;64294;49.176;16.626;2023-11-22T12:53:07;19.92;;;10.88;;
75680;SDS011;64294;49.176;16.626;2023-11-22T12:55:46;20.80;;;10.93;;
75680;SDS011;64294;49.176;16.626;2023-11-22T12:58:17;21.77;;;11.25;;
75680;SDS011;64294;49.176;16.626;2023-11-22T13:00:44;20.55;;;10.77;;
75680;SDS011;64294;49.176;16.626;2023-11-22T13:03:11;23.67;;;11.02;;
75680;SDS011;64294;49.176;16.626;2023-11-22T13:05:41;25.05;;;11.95;;
75680;SDS011;64294;49.176;16.626;2023-11-22T13:08:08;21.02;;;10.80;;
75680;SDS011;64294;49.176;16.626;2023-11-22T13:10:38;21.20;;;10.98;;
75680;SDS011;64294;49.176;16.626;2023-11-22T13:13:03;21.38;;;10.95;;
75680;SDS011;64294;49.176;16.626;2023-11-22T13:15:28;20.90;;;11.10;;
75680;SDS011;64294;49.176;16.626;2023-11-22T13:17:55;24.15;;;11.40;;
75680;SDS011;64294;49.176;16.626;2023-11-22T13:20:24;21.75;;;11.45;;
75680;SDS011;64294;49.176;16.626;2023-11-22T13:25:20;20.63;;;10.98;;
75680;SDS011;64294;49.176;16.626;2023-11-22T13:27:48;22.65;;;10.73;;
75680;SDS011;64294;49.176;16.626;2023-11-22T13:30:15;21.75;;;11.45;;
75680;SDS011;64294;49.176;16.626;2023-11-22T13:32:44;21.10;;;11.32;;
75680;SDS011;64294;49.176;16.626;2023-11-22T13:35:10;22.58;;;11.23;;
75680;SDS011;64294;49.176;16.626;2023-11-22T13:37:45;23.35;;;11.32;;
75680;SDS011;64294;49.176;16.626;2023-11-22T13:40:13;20.10;;;11.07;;
75680;SDS011;64294;49.176;16.626;2023-11-22T13:42:49;22.65;;;11.23;;
75680;SDS011;64294;49.176;16.626;2023-11-22T13:45:17;22.63;;;10.88;;
75680;SDS011;64294;49.176;16.626;2023-11-22T13:50:10;23.42;;;10.93;;
75680;SDS011;64294;49.176;16.626;2023-11-22T13:52:38;23.13;;;11.43;;
75680;SDS011;64294;49.176;16.626;2023-11-22T13:55:04;25.33;;;11.90;;
75680;SDS011;64294;49.176;16.626;2023-11-22T13:57:33;24.45;;;11.70;;
75680;SDS011;64294;49.176;16.626;2023-11-22T13:59:58;21.73;;;10.68;;
75680;SDS011;64294;49.176;16.626;2023-11-22T14:02:24;24.02;;;11.65;;
75680;SDS011;64294;49.176;16.626;2023-11-22T14:04:52;27.13;;;12.27;;
75680;SDS011;64294;49.176;16.626;2023-11-22T14:07:17;22.58;;;12.25;;
75680;SDS011;64294;49.176;16.626;2023-11-22T14:09:43;24.20;;;11.88;;
75680;SDS011;64294;49.176;16.626;2023-11-22T14:12:11;24.73;;;11.27;;
75680;SDS011;64294;49.176;16.626;2023-11-22T14:14:37;27.70;;;12.10;;
75680;SDS011;64294;49.176;16.626;2023-11-22T14:17:02;20.02;;;11.05;;
75680;SDS011;64294;49.176;16.626;2023-11-22T14:19:29;21.58;;;11.65;;
75680;SDS011;64294;49.176;16.626;2023-11-22T14:21:54;21.70;;;11.55;;
75680;SDS011;64294;49.176;16.626;2023-11-22T14:24:19;25.13;;;11.52;;
75680;SDS011;64294;49.176;16.626;2023-11-22T14:26:45;24.10;;;12.13;;
75680;SDS011;64294;49.176;16.626;2023-11-22T14:29:14;22.58;;;11.23;;
75680;SDS011;64294;49.176;16.626;2023-11-22T14:31:39;26.25;;;11.57;;
75680;SDS011;64294;49.176;16.626;2023-11-22T14:34:07;23.20;;;11.35;;
75680;SDS011;64294;49.176;16.626;2023-11-22T14:36:33;22.20;;;11.20;;